Time;durP1;ratioP1;P1;durP2;ratioP2;P2;SDS_P1;SDS_P2;PMS_P1;PMS_P2;Temp;Humidity;BMP_temperature;BMP_pressure;BME280_temperature;BME280_humidity;BME280_pressure;Samples;Min_cycle;Max_cycle;Signal;HPM_P1;HPM_P2
2022/07/25 00:01:22;;;;;;;6.38;4.35;;;;;;;23.61;46.82;100328.84;5074035;28;20456;-76
2022/07/25 00:03:51;;;;;;;6.60;4.13;;;;;;;23.43;47.24;100335.31;5073740;28;20456;-74
2022/07/25 00:06:19;;;;;;;7.65;4.40;;;;;;;23.31;48.12;100325.84;5073899;28;20094;-73
2022/07/25 00:08:47;;;;;;;6.20;4.00;;;;;;;23.25;47.90;100331.09;5073465;28;20048;-74
2022/07/25 00:11:15;;;;;;;5.72;3.80;;;;;;;23.26;47.72;100320.06;5073922;28;20382;-74
2022/07/25 00:13:43;;;;;;;6.03;4.20;;;;;;;23.17;48.08;100329.28;5073511;28;20036;-75
2022/07/25 00:16:12;;;;;;;6.80;4.25;;;;;;;23.21;47.64;100329.75;5073670;28;20041;-74
2022/07/25 00:18:42;;;;;;;7.60;4.07;;;;;;;23.12;48.32;100328.91;5073518;28;20046;-75
2022/07/25 00:21:11;;;;;;;6.90;4.20;;;;;;;23.42;46.83;100325.47;5073960;28;20044;-75
2022/07/25 00:23:39;;;;;;;7.15;4.55;;;;;;;23.29;47.50;100329.75;5073511;28;20148;-75
2022/07/25 00:26:07;;;;;;;6.47;4.18;;;;;;;23.15;47.67;100325.84;5073452;28;20390;-74
2022/07/25 00:28:35;;;;;;;9.40;4.30;;;;;;;23.25;47.22;100326.50;5073329;28;20413;-74
2022/07/25 00:31:03;;;;;;;5.55;3.97;;;;;;;23.19;47.69;100329.94;5073273;28;20128;-74
2022/07/25 00:33:31;;;;;;;6.72;4.03;;;;;;;23.16;47.66;100327.53;5072358;28;20458;-75
2022/07/25 00:36:01;;;;;;;6.07;4.03;;;;;;;23.15;47.64;100325.84;5073145;28;20071;-75
2022/07/25 00:38:31;;;;;;;6.88;4.07;;;;;;;23.00;49.11;100322.97;5073329;28;20041;-75
2022/07/25 00:40:59;;;;;;;6.32;4.10;;;;;;;22.91;48.71;100328.59;5072956;28;20055;-75
2022/07/25 00:43:27;;;;;;;6.90;3.90;;;;;;;22.88;48.82;100328.94;5073276;28;20497;-75
2022/07/25 00:45:57;;;;;;;6.00;4.07;;;;;;;22.97;48.14;100322.44;5071836;28;20080;-73
2022/07/25 00:48:26;;;;;;;5.88;3.85;;;;;;;22.84;49.10;100329.25;5072047;28;20045;-74
2022/07/25 00:50:55;;;;;;;5.90;3.85;;;;;;;22.71;49.32;100320.75;5073317;28;20040;-76
2022/07/25 00:53:25;;;;;;;5.93;4.30;;;;;;;22.75;48.75;100322.09;5071881;28;20106;-75
2022/07/25 00:55:54;;;;;;;6.53;3.88;;;;;;;22.89;48.51;100325.19;5072378;28;20068;-75
2022/07/25 00:58:22;;;;;;;6.47;4.05;;;;;;;22.95;48.56;100319.06;5073263;28;20051;-74
2022/07/25 01:00:51;;;;;;;5.95;3.80;;;;;;;22.85;48.60;100328.22;5072848;28;20127;-75
2022/07/25 01:03:19;;;;;;;7.00;3.88;;;;;;;22.70;48.96;100327.19;5071846;28;20509;-76
2022/07/25 01:05:49;;;;;;;5.82;3.90;;;;;;;22.65;49.06;100318.69;5072831;28;20050;-77
2022/07/25 01:08:22;;;;;;;5.70;3.53;;;;;;;22.59;49.94;100313.94;5073429;28;20044;-76
2022/07/25 01:10:51;;;;;;;5.95;3.80;;;;;;;22.52;49.62;100324.63;5072636;28;20047;-74
2022/07/25 01:13:19;;;;;;;6.28;3.83;;;;;;;22.50;49.72;100321.22;5073008;28;20567;-74
2022/07/25 01:15:48;;;;;;;5.13;3.85;;;;;;;22.47;49.76;100321.53;5072759;28;20040;-75
2022/07/25 01:18:16;;;;;;;6.18;4.05;;;;;;;22.44;49.24;100327.31;5072717;28;20117;-73
2022/07/25 01:20:46;;;;;;;4.50;3.45;;;;;;;22.41;49.02;100316.78;5072637;28;20055;-76
2022/07/25 01:23:14;;;;;;;7.95;3.58;;;;;;;22.42;48.83;100314.94;5073107;28;20098;-76
2022/07/25 01:25:42;;;;;;;11.25;4.63;;;;;;;22.51;48.27;100319.34;5072807;28;20441;-76
2022/07/25 01:28:10;;;;;;;8.13;4.35;;;;;;;22.51;49.11;100311.19;5072593;28;20068;-77
2022/07/25 01:30:39;;;;;;;6.03;3.53;;;;;;;22.48;49.97;100314.22;5071482;28;20056;-77
2022/07/25 01:33:07;;;;;;;7.13;3.85;;;;;;;22.41;50.13;100310.50;5072471;28;20437;-76
2022/07/25 01:35:35;;;;;;;8.23;3.90;;;;;;;22.54;49.45;100310.84;5071816;28;20051;-76
2022/07/25 01:38:12;;;;;;;4.85;3.50;;;;;;;22.70;47.95;100313.59;5071317;28;20127;-77
2022/07/25 01:40:41;;;;;;;5.88;3.70;;;;;;;22.59;49.12;100308.50;5072738;28;20048;-76
2022/07/25 01:43:10;;;;;;;6.43;3.63;;;;;;;22.51;49.18;100309.34;5072464;28;20292;-76
2022/07/25 01:45:39;;;;;;;7.25;4.20;;;;;;;22.59;49.25;100308.50;5072502;28;20048;-78
2022/07/25 01:48:07;;;;;;;6.53;3.75;;;;;;;22.42;50.14;100304.91;5072517;28;20044;-78
2022/07/25 01:50:35;;;;;;;5.93;4.00;;;;;;;22.27;50.65;100307.41;5072645;28;20044;-78
2022/07/25 01:53:04;;;;;;;6.60;3.85;;;;;;;22.09;50.81;100306.69;5072197;28;20071;-78
2022/07/25 01:55:33;;;;;;;5.60;4.00;;;;;;;22.02;51.35;100304.78;5071343;28;20140;-77
2022/07/25 01:58:01;;;;;;;5.43;3.80;;;;;;;21.87;51.59;100307.25;5072264;28;20076;-78
2022/07/25 02:00:30;;;;;;;5.93;3.85;;;;;;;21.81;52.50;100313.31;5072416;28;20040;-75
2022/07/25 02:05:43;;;;;;;6.22;4.40;;;;;;;21.98;51.16;100302.38;5072642;28;20090;-78
2022/07/25 02:08:11;;;;;;;7.15;4.20;;;;;;;21.88;51.90;100298.94;5073802;28;20059;-78
2022/07/25 02:10:41;;;;;;;9.40;4.50;;;;;;;21.90;52.54;100301.47;5075990;28;20040;-74
2022/07/25 02:13:09;;;;;;;11.25;4.40;;;;;;;21.80;52.31;100303.47;5075652;28;20072;-73
2022/07/25 02:15:37;;;;;;;7.30;4.00;;;;;;;22.10;51.14;100297.53;5076108;28;20048;-74
2022/07/25 02:18:05;;;;;;;5.00;4.00;;;;;;;22.13;50.16;100290.91;5075555;28;20490;-75
2022/07/25 02:20:34;;;;;;;5.40;4.00;;;;;;;22.04;51.49;100295.44;5075916;28;20041;-74
2022/07/25 02:23:02;;;;;;;7.38;4.15;;;;;;;22.07;51.68;100295.13;5075476;28;20056;-75
2022/07/25 02:25:31;;;;;;;7.03;4.15;;;;;;;22.04;51.61;100303.59;5076028;28;20044;-74
2022/07/25 02:28:01;;;;;;;6.65;4.13;;;;;;;21.94;51.98;100298.28;5075612;28;20055;-78
2022/07/25 02:30:29;;;;;;;6.97;4.43;;;;;;;21.88;52.51;100306.22;5075659;28;20048;-78
2022/07/25 02:32:57;;;;;;;7.45;3.97;;;;;;;21.84;52.52;100303.00;5074544;28;20098;-78
2022/07/25 02:35:26;;;;;;;6.75;4.15;;;;;;;21.83;52.22;100306.75;5075621;28;20146;-78
2022/07/25 02:37:54;;;;;;;7.15;4.43;;;;;;;21.68;52.93;100305.66;5074188;28;20048;-79
2022/07/25 02:40:22;;;;;;;5.95;4.30;;;;;;;21.64;53.32;100299.69;5075550;28;20405;-78
2022/07/25 02:42:50;;;;;;;6.18;4.30;;;;;;;21.71;52.52;100305.31;5075561;28;20040;-77
2022/07/25 02:45:20;;;;;;;8.52;4.78;;;;;;;21.61;53.44;100307.28;5075789;28;20045;-78
2022/07/25 02:47:48;;;;;;;8.10;4.57;;;;;;;21.52;53.77;100313.69;5075583;28;20573;-78
2022/07/25 02:50:17;;;;;;;6.07;4.30;;;;;;;21.37;54.45;100319.72;5075230;28;20044;-77
2022/07/25 02:52:45;;;;;;;7.88;4.82;;;;;;;21.32;54.07;100315.78;5075858;28;20047;-77
2022/07/25 02:55:13;;;;;;;7.72;4.78;;;;;;;21.23;54.85;100314.00;5075169;28;20544;-78
2022/07/25 02:57:41;;;;;;;7.10;4.68;;;;;;;21.39;54.00;100317.69;5075411;28;20127;-77
2022/07/25 03:00:11;;;;;;;7.80;4.80;;;;;;;21.18;55.13;100321.78;5075005;28;20036;-78
2022/07/25 03:02:40;;;;;;;7.50;4.47;;;;;;;21.06;55.34;100324.75;5075028;28;20131;-78
2022/07/25 03:05:10;;;;;;;7.85;5.55;;;;;;;20.99;55.56;100333.66;5074831;28;20079;-77
2022/07/25 03:07:39;;;;;;;8.90;5.15;;;;;;;20.95;55.89;100333.13;5075383;28;20040;-77
2022/07/25 03:10:09;;;;;;;9.25;5.50;;;;;;;20.93;56.01;100327.00;5074791;28;20051;-77
2022/07/25 03:12:39;;;;;;;9.63;5.10;;;;;;;20.82;56.17;100333.50;5074959;28;20127;-77
2022/07/25 03:15:09;;;;;;;10.15;5.22;;;;;;;20.57;57.07;100329.75;5074630;28;20051;-77
2022/07/25 03:17:37;;;;;;;8.45;5.00;;;;;;;20.51;57.82;100338.47;5074920;28;20044;-77
2022/07/25 03:20:08;;;;;;;6.70;5.13;;;;;;;20.58;57.54;100339.56;5073978;28;20067;-77
2022/07/25 03:22:37;;;;;;;8.13;5.38;;;;;;;20.59;57.56;100340.44;5075018;28;20044;-79
2022/07/25 03:25:06;;;;;;;9.30;5.47;;;;;;;20.43;58.32;100343.81;5073189;28;20552;-78
2022/07/25 03:27:49;;;;;;;9.02;5.95;;;;;;;20.30;58.69;100332.47;5074733;28;20102;-79
2022/07/25 03:30:17;;;;;;;8.20;5.22;;;;;;;20.40;58.75;100344.09;5074652;28;20047;-79
2022/07/25 03:32:45;;;;;;;7.70;5.47;;;;;;;20.55;58.32;100336.31;5074684;28;20394;-79
2022/07/25 03:35:16;;;;;;;9.25;5.40;;;;;;;20.62;58.05;100347.38;5074207;28;20036;-80
2022/07/25 03:37:44;;;;;;;8.30;5.30;;;;;;;20.57;58.67;100345.16;5074570;28;20460;-80
2022/07/25 03:40:14;;;;;;;11.10;5.65;;;;;;;20.67;57.85;100347.78;5074283;28;20420;-80
2022/07/25 03:42:43;;;;;;;9.10;4.85;;;;;;;20.90;57.08;100343.59;5074433;28;20052;-81
2022/07/25 03:45:11;;;;;;;8.45;5.32;;;;;;;20.91;56.86;100348.00;5074124;28;20159;-80
2022/07/25 03:47:39;;;;;;;9.57;5.57;;;;;;;20.72;58.11;100343.59;5074133;28;20050;-80
2022/07/25 03:50:08;;;;;;;9.43;5.32;;;;;;;20.85;57.47;100351.34;5074030;28;20059;-80
2022/07/25 03:52:38;;;;;;;9.77;5.50;;;;;;;21.14;56.48;100349.22;5073978;28;20047;-80
2022/07/25 03:55:07;;;;;;;8.98;5.32;;;;;;;21.58;55.08;100341.03;5074004;28;20041;-80
2022/07/25 03:57:36;;;;;;;9.43;4.90;;;;;;;21.93;53.90;100340.03;5074378;28;20091;-79
2022/07/25 04:00:07;;;;;;;9.48;5.45;;;;;;;22.85;51.40;100338.25;5073885;28;20037;-79
2022/07/25 04:02:37;;;;;;;9.98;5.18;;;;;;;23.67;48.73;100333.63;5073947;28;20047;-79
2022/07/25 04:05:07;;;;;;;9.57;4.93;;;;;;;24.15;47.44;100339.91;5072349;28;20105;-79
2022/07/25 04:07:36;;;;;;;7.70;5.10;;;;;;;24.58;46.00;100340.34;5073938;28;20074;-78
2022/07/25 04:10:08;;;;;;;8.95;5.32;;;;;;;25.34;44.39;100342.13;5073723;28;20072;-77
2022/07/25 04:12:36;;;;;;;9.77;4.90;;;;;;;25.40;44.51;100341.41;5073921;28;20045;-82
2022/07/25 04:15:05;;;;;;;9.65;5.10;;;;;;;25.94;43.42;100336.53;5072799;28;20048;-85
2022/07/25 04:17:33;;;;;;;7.60;4.75;;;;;;;26.30;42.30;100337.63;5072698;28;20080;-85
2022/07/25 04:20:06;;;;;;;9.88;5.22;;;;;;;26.74;41.51;100334.78;5074042;28;20040;-84
2022/07/25 04:22:36;;;;;;;8.40;4.70;;;;;;;26.95;40.64;100336.66;5074323;28;20478;-79
2022/07/25 04:25:10;;;;;;;8.70;4.72;;;;;;;27.20;40.39;100337.94;5073378;28;20044;-79
2022/07/25 04:27:38;;;;;;;8.77;4.70;;;;;;;27.47;39.84;100336.25;5073600;28;20086;-79
2022/07/25 04:30:08;;;;;;;7.32;4.50;;;;;;;26.92;40.96;100347.97;5073020;28;20072;-77
2022/07/25 04:32:36;;;;;;;9.20;4.70;;;;;;;26.94;40.91;100346.75;5073602;28;20465;-77
2022/07/25 04:35:04;;;;;;;8.13;4.75;;;;;;;26.88;41.13;100353.00;5073342;28;20488;-80
2022/07/25 04:37:34;;;;;;;9.98;4.82;;;;;;;27.71;38.91;100348.69;5073551;28;20040;-78
2022/07/25 04:40:03;;;;;;;9.40;4.65;;;;;;;28.48;38.07;100344.84;5073025;28;20052;-75
2022/07/25 04:42:33;;;;;;;9.00;4.10;;;;;;;27.91;39.07;100346.06;5073526;28;20409;-81
2022/07/25 04:45:03;;;;;;;6.65;4.40;;;;;;;28.36;37.70;100341.84;5073357;28;20405;-82
2022/07/25 04:47:31;;;;;;;8.52;4.57;;;;;;;28.19;38.43;100340.50;5072435;28;20452;-80
2022/07/25 04:50:01;;;;;;;10.52;4.57;;;;;;;28.12;38.08;100337.72;5073025;28;20040;-81
2022/07/25 04:52:29;;;;;;;8.95;4.10;;;;;;;28.80;36.95;100343.22;5073638;28;20481;-85
2022/07/25 04:54:57;;;;;;;10.18;4.43;;;;;;;29.01;37.12;100350.47;5073540;28;20037;-73
2022/07/25 04:57:25;;;;;;;7.75;4.18;;;;;;;29.31;35.83;100348.13;5073014;28;20105;-74
2022/07/25 04:59:55;;;;;;;7.82;4.38;;;;;;;29.08;36.26;100343.06;5073275;28;20072;-74
2022/07/25 05:02:23;;;;;;;12.68;4.72;;;;;;;29.22;35.83;100352.16;5072885;28;20390;-75
2022/07/25 05:04:52;;;;;;;7.93;4.25;;;;;;;29.80;35.02;100349.56;5073044;28;20448;-71
2022/07/25 05:07:20;;;;;;;7.38;4.22;;;;;;;29.64;35.44;100349.00;5072628;28;20041;-72
2022/07/25 05:09:48;;;;;;;8.43;4.10;;;;;;;29.85;35.00;100347.03;5072688;28;20048;-72
2022/07/25 05:12:16;;;;;;;8.70;4.25;;;;;;;29.87;34.86;100344.91;5072758;28;20044;-68
2022/07/25 05:14:45;;;;;;;6.72;4.00;;;;;;;30.17;34.35;100345.25;5072888;28;20044;-66
2022/07/25 05:17:14;;;;;;;6.78;4.30;;;;;;;29.49;35.63;100331.03;5072399;28;20044;-67
2022/07/25 05:19:42;;;;;;;7.07;4.03;;;;;;;29.21;35.66;100344.97;5072699;28;20127;-73
2022/07/25 05:22:10;;;;;;;9.43;4.18;;;;;;;29.98;34.59;100346.97;5072692;28;20123;-74
2022/07/25 05:24:38;;;;;;;7.47;4.20;;;;;;;30.33;34.26;100344.78;5071672;28;20067;-72
2022/07/25 05:27:07;;;;;;;15.45;4.57;;;;;;;30.25;34.07;100341.41;5071413;28;20060;-69
2022/07/25 05:29:35;;;;;;;8.02;4.45;;;;;;;29.95;34.57;100347.44;5072645;28;20456;-70
2022/07/25 05:32:04;;;;;;;7.32;4.05;;;;;;;30.14;34.38;100341.03;5071456;28;20052;-70
2022/07/25 05:34:33;;;;;;;8.05;4.25;;;;;;;30.84;33.25;100334.75;5072459;28;20068;-71
2022/07/25 05:37:01;;;;;;;6.38;4.15;;;;;;;30.55;33.55;100331.53;5072587;28;20049;-71
2022/07/25 05:39:30;;;;;;;6.82;4.60;;;;;;;30.90;32.74;100328.38;5071484;28;20051;-71
2022/07/25 05:41:58;;;;;;;7.07;3.75;;;;;;;30.47;32.00;100334.53;5073703;28;20044;-71
2022/07/25 05:44:26;;;;;;;7.00;3.90;;;;;;;32.01;29.15;100320.09;5076508;28;20440;-69
2022/07/25 05:46:54;;;;;;;6.88;3.85;;;;;;;31.52;30.46;100324.66;5076628;28;20074;-69
2022/07/25 05:49:22;;;;;;;6.90;4.00;;;;;;;31.64;30.87;100327.50;5076208;28;20047;-71
2022/07/25 05:51:52;;;;;;;5.18;3.83;;;;;;;32.04;30.44;100327.94;5076339;28;20048;-70
2022/07/25 05:54:20;;;;;;;6.28;4.13;;;;;;;31.84;30.57;100333.66;5075912;28;20486;-70
2022/07/25 05:56:48;;;;;;;13.82;4.80;;;;;;;32.80;29.09;100326.47;5076390;28;20040;-70
2022/07/25 05:59:19;;;;;;;10.65;3.88;;;;;;;32.59;29.58;100332.53;5076288;28;20072;-70
2022/07/25 06:01:47;;;;;;;6.28;3.80;;;;;;;33.21;28.05;100331.16;5076288;28;20405;-70
2022/07/25 06:04:15;;;;;;;6.25;4.07;;;;;;;32.18;29.26;100325.84;5075949;28;20044;-70
2022/07/25 06:06:49;;;;;;;10.90;3.90;;;;;;;32.48;28.60;100334.19;5076264;28;20049;-70
2022/07/25 06:09:20;;;;;;;5.70;3.95;;;;;;;32.33;28.99;100326.31;5075977;28;20098;-70
2022/07/25 06:11:49;;;;;;;5.25;3.70;;;;;;;32.66;27.96;100325.00;5076387;28;20042;-72
2022/07/25 06:14:28;;;;;;;5.85;4.00;;;;;;;33.17;27.50;100329.09;5075820;28;20072;-73
2022/07/25 06:16:56;;;;;;;5.57;3.70;;;;;;;33.21;28.18;100328.41;5075945;28;20123;-72
2022/07/25 06:19:24;;;;;;;7.15;3.72;;;;;;;33.79;27.08;100327.56;5075765;28;20139;-70
2022/07/25 06:21:52;;;;;;;7.65;3.78;;;;;;;34.59;25.85;100320.41;5075754;28;20128;-70
2022/07/25 06:24:22;;;;;;;9.38;3.80;;;;;;;34.33;26.02;100317.09;5073987;28;20079;-70
2022/07/25 06:26:50;;;;;;;6.40;3.58;;;;;;;33.86;26.18;100321.88;5075401;28;20477;-71
2022/07/25 06:29:18;;;;;;;6.05;3.75;;;;;;;34.04;26.81;100321.75;5075497;28;20075;-71
2022/07/25 06:31:46;;;;;;;5.13;3.40;;;;;;;33.81;26.53;100319.88;5074303;28;20048;-70
2022/07/25 06:34:14;;;;;;;7.30;3.80;;;;;;;33.77;27.36;100318.66;5074285;28;20060;-70
2022/07/25 06:36:43;;;;;;;6.25;3.60;;;;;;;34.29;26.47;100317.84;5075644;28;20041;-70
2022/07/25 06:39:11;;;;;;;6.15;3.40;;;;;;;34.60;25.74;100313.75;5075246;28;20072;-72
2022/07/25 06:41:40;;;;;;;6.10;3.70;;;;;;;34.35;25.90;100314.06;5075535;28;20036;-76
2022/07/25 06:44:08;;;;;;;7.45;3.53;;;;;;;34.69;25.89;100315.88;5075224;28;20041;-74
2022/07/25 06:46:37;;;;;;;5.63;3.20;;;;;;;34.73;25.92;100311.50;5075392;28;20448;-73
2022/07/25 06:49:05;;;;;;;4.93;3.17;;;;;;;35.25;24.26;100303.00;5073933;28;20467;-73
2022/07/25 06:51:34;;;;;;;6.88;3.42;;;;;;;35.18;24.76;100302.34;5075593;28;20055;-73
2022/07/25 06:54:03;;;;;;;5.18;3.20;;;;;;;34.98;24.50;100302.00;5073253;28;20056;-72
2022/07/25 06:56:31;;;;;;;6.57;3.40;;;;;;;35.32;23.98;100302.81;5074648;28;20048;-73
2022/07/25 06:59:01;;;;;;;4.55;3.28;;;;;;;34.41;24.95;100297.34;5073739;28;20139;-72
2022/07/25 07:01:29;;;;;;;4.97;3.10;;;;;;;34.47;25.21;100306.63;5074847;28;20123;-72
2022/07/25 07:03:57;;;;;;;6.35;3.40;;;;;;;34.79;24.37;100292.22;5074973;28;20066;-72
2022/07/25 07:06:25;;;;;;;7.93;3.95;;;;;;;33.75;26.36;100303.41;5074965;28;20041;-72
2022/07/25 07:08:54;;;;;;;7.38;3.30;;;;;;;32.97;26.84;100297.13;5075184;28;20091;-72
2022/07/25 07:11:23;;;;;;;5.43;3.50;;;;;;;31.98;28.59;100293.00;5075070;28;20371;-72
2022/07/25 07:13:51;;;;;;;5.57;3.25;;;;;;;31.43;29.13;100289.34;5074872;28;20040;-72
2022/07/25 07:16:20;;;;;;;4.88;3.40;;;;;;;31.19;29.70;100282.78;5074835;28;20119;-72
2022/07/25 07:18:48;;;;;;;4.97;3.30;;;;;;;30.98;30.18;100287.63;5074616;28;20068;-71
2022/07/25 07:21:17;;;;;;;6.22;3.60;;;;;;;31.13;30.34;100289.19;5073119;28;20049;-72
2022/07/25 07:23:49;;;;;;;6.80;3.45;;;;;;;30.86;30.21;100296.81;5074887;28;20048;-72
2022/07/25 07:26:21;;;;;;;8.50;3.50;;;;;;;30.87;30.04;100295.75;5073142;28;20131;-71
2022/07/25 07:28:49;;;;;;;6.63;3.85;;;;;;;29.88;31.02;100291.59;5074663;28;20052;-71
2022/07/25 07:31:18;;;;;;;5.10;3.20;;;;;;;29.91;31.06;100285.66;5074179;28;20055;-72
2022/07/25 07:33:47;;;;;;;5.10;3.40;;;;;;;29.72;31.29;100292.06;5074402;28;20102;-72
2022/07/25 07:36:16;;;;;;;6.32;3.22;;;;;;;29.35;32.29;100280.75;5073928;28;20050;-71
2022/07/25 07:38:44;;;;;;;4.70;3.22;;;;;;;29.88;30.73;100286.09;5074346;28;20059;-72
2022/07/25 07:41:13;;;;;;;6.88;3.70;;;;;;;30.08;30.98;100286.91;5074185;28;20498;-73
2022/07/25 07:43:41;;;;;;;8.77;3.40;;;;;;;29.91;30.80;100296.66;5074237;28;20127;-72
2022/07/25 07:46:09;;;;;;;6.28;3.65;;;;;;;29.74;31.49;100289.97;5074137;28;20499;-71
2022/07/25 07:48:38;;;;;;;7.47;3.28;;;;;;;29.74;31.73;100289.97;5074479;28;20041;-73
2022/07/25 07:51:07;;;;;;;5.65;3.10;;;;;;;29.61;31.27;100286.19;5074336;28;20129;-72
2022/07/25 07:56:21;;;;;;;8.35;3.58;;;;;;;29.49;31.88;100293.41;5073808;28;20059;-73
2022/07/25 07:58:49;;;;;;;6.55;3.80;;;;;;;29.34;31.79;100285.38;5072814;28;20135;-72
2022/07/25 08:01:17;;;;;;;5.60;3.50;;;;;;;29.29;31.92;100292.56;5073995;28;20481;-73
2022/07/25 08:03:46;;;;;;;5.63;3.50;;;;;;;29.20;31.70;100288.34;5074007;28;20123;-72
2022/07/25 08:06:15;;;;;;;5.40;3.50;;;;;;;29.27;31.96;100284.53;5073216;28;20044;-73
2022/07/25 08:08:43;;;;;;;6.30;3.25;;;;;;;29.36;32.08;100279.69;5073807;28;20037;-72
2022/07/25 08:11:11;;;;;;;4.38;3.05;;;;;;;29.40;31.28;100283.66;5072297;28;20082;-72
2022/07/25 08:13:39;;;;;;;6.20;3.60;;;;;;;29.40;31.94;100277.34;5073860;28;20041;-72
2022/07/25 08:16:10;;;;;;;5.60;3.55;;;;;;;29.33;31.36;100275.44;5072229;28;20063;-72
2022/07/25 08:18:39;;;;;;;4.57;3.30;;;;;;;28.59;32.48;100275.66;5073908;28;20094;-72
2022/07/25 08:21:10;;;;;;;4.57;3.42;;;;;;;28.57;32.89;100282.38;5072298;28;20084;-72
2022/07/25 08:23:40;;;;;;;6.28;3.63;;;;;;;28.54;32.76;100274.56;5073506;28;20045;-72
2022/07/25 08:26:08;;;;;;;5.45;3.47;;;;;;;28.50;32.99;100264.03;5073665;28;20409;-72
2022/07/25 08:28:36;;;;;;;6.97;3.50;;;;;;;28.92;32.79;100272.94;5073283;28;20048;-72
2022/07/25 08:31:04;;;;;;;4.95;3.78;;;;;;;29.02;32.88;100267.03;5073504;28;20044;-72
2022/07/25 08:33:32;;;;;;;6.03;3.42;;;;;;;29.21;32.12;100263.41;5073020;28;20049;-72
2022/07/25 08:36:00;;;;;;;5.72;3.53;;;;;;;29.16;32.51;100265.97;5071857;28;20060;-72
2022/07/25 08:38:29;;;;;;;5.50;4.13;;;;;;;29.20;32.21;100260.88;5071958;28;20056;-72
2022/07/25 08:40:58;;;;;;;6.15;3.90;;;;;;;29.17;32.25;100259.41;5073618;28;20040;-72
2022/07/25 08:43:31;;;;;;;5.43;3.80;;;;;;;29.32;32.19;100259.16;5071949;28;20152;-72
2022/07/25 08:46:01;;;;;;;6.82;3.75;;;;;;;29.24;32.50;100251.16;5071988;28;20055;-72
2022/07/25 08:48:29;;;;;;;6.72;4.22;;;;;;;29.31;32.77;100247.34;5072868;28;20044;-72
2022/07/25 08:50:59;;;;;;;6.82;3.78;;;;;;;29.41;32.18;100249.63;5071919;28;20048;-72
2022/07/25 08:53:29;;;;;;;6.05;3.65;;;;;;;29.46;31.79;100247.09;5072945;28;20117;-72
2022/07/25 08:56:04;;;;;;;6.18;3.25;;;;;;;29.42;31.68;100250.47;5073253;28;20127;-72
2022/07/25 08:58:41;;;;;;;6.07;3.72;;;;;;;29.35;32.29;100253.28;5073009;28;20051;-72
2022/07/25 09:01:11;;;;;;;6.90;3.65;;;;;;;29.41;32.02;100235.91;5072902;28;20040;-73
2022/07/25 09:03:41;;;;;;;7.30;3.50;;;;;;;29.58;32.17;100230.81;5073229;28;20048;-72
2022/07/25 09:06:18;;;;;;;5.88;3.83;;;;;;;29.81;31.87;100231.13;5072958;28;20106;-72
2022/07/25 09:08:57;;;;;;;7.15;4.10;;;;;;;29.87;31.42;100232.19;5071801;28;20509;-72
2022/07/25 09:11:28;;;;;;;6.32;3.70;;;;;;;29.84;31.71;100229.88;5072805;28;20056;-72
2022/07/25 09:14:01;;;;;;;8.32;4.00;;;;;;;29.39;32.04;100224.28;5073110;28;20041;-72
2022/07/25 09:16:33;;;;;;;5.90;3.67;;;;;;;29.46;31.60;100222.38;5071451;28;20445;-72
2022/07/25 09:19:13;;;;;;;5.93;3.60;;;;;;;29.66;32.09;100221.50;5076387;28;20058;-72
2022/07/25 09:21:44;;;;;;;8.30;4.00;;;;;;;29.86;31.64;100219.50;5075708;28;20048;-72
2022/07/25 09:24:15;;;;;;;5.75;3.75;;;;;;;30.09;30.68;100213.47;5077243;28;20044;-72
2022/07/25 09:26:47;;;;;;;6.32;4.05;;;;;;;30.13;30.37;100218.34;5076891;28;20048;-72
2022/07/25 09:29:21;;;;;;;5.45;3.60;;;;;;;30.20;30.19;100227.38;5077232;28;20048;-72
2022/07/25 09:31:49;;;;;;;5.60;3.70;;;;;;;29.97;30.82;100224.31;5076718;28;20374;-70
2022/07/25 09:34:30;;;;;;;4.82;3.72;;;;;;;30.12;30.62;100215.81;5075063;28;20067;-72
2022/07/25 09:36:58;;;;;;;7.05;3.63;;;;;;;30.09;30.55;100213.47;5075552;28;20124;-71
2022/07/25 09:39:35;;;;;;;5.78;3.78;;;;;;;30.13;30.51;100212.84;5075152;28;20052;-71
2022/07/25 09:42:14;;;;;;;5.00;3.67;;;;;;;29.81;31.19;100213.81;5075468;28;20044;-70
2022/07/25 09:44:57;;;;;;;5.65;4.00;;;;;;;29.63;30.94;100218.13;5075091;28;20110;-71
2022/07/25 09:47:25;;;;;;;6.32;3.85;;;;;;;29.63;30.72;100204.38;5076418;28;20036;-71
2022/07/25 09:49:54;;;;;;;5.35;3.63;;;;;;;29.91;30.42;100205.91;5075300;28;20086;-71
2022/07/25 09:52:22;;;;;;;6.03;3.90;;;;;;;29.95;30.29;100198.94;5076107;28;20471;-71
2022/07/25 09:54:50;;;;;;;6.57;3.97;;;;;;;29.93;30.32;100195.56;5076289;28;20090;-71
2022/07/25 09:57:20;;;;;;;5.22;3.58;;;;;;;29.83;30.16;100185.06;5075983;28;20044;-72
2022/07/25 09:59:49;;;;;;;5.85;3.55;;;;;;;30.03;30.14;100193.19;5076450;28;20045;-71
2022/07/25 10:02:32;;;;;;;7.13;4.10;;;;;;;30.04;29.34;100189.38;5076318;28;20140;-71
2022/07/25 10:05:12;;;;;;;6.85;3.60;;;;;;;30.31;29.36;100194.75;5076244;28;20139;-71
2022/07/25 10:07:45;;;;;;;5.78;3.60;;;;;;;30.51;28.62;100186.34;5075940;28;20132;-71
2022/07/25 10:10:26;;;;;;;5.57;4.00;;;;;;;30.39;28.76;100183.44;5075132;28;20054;-71
2022/07/25 10:13:09;;;;;;;8.32;3.92;;;;;;;30.43;29.13;100184.69;5074950;28;20059;-71
2022/07/25 10:15:47;;;;;;;4.97;3.22;;;;;;;30.33;29.06;100176.94;5075764;28;20044;-71
2022/07/25 10:18:17;;;;;;;5.18;3.80;;;;;;;30.67;28.69;100169.28;5075913;28;20064;-71
2022/07/25 10:20:46;;;;;;;5.45;3.78;;;;;;;30.65;28.20;100166.75;5076003;28;20054;-71
2022/07/25 10:23:20;;;;;;;6.55;3.92;;;;;;;30.64;28.17;100167.81;5075750;28;20053;-71
2022/07/25 10:25:59;;;;;;;9.07;4.25;;;;;;;30.65;28.43;100161.25;5074816;28;20123;-71
2022/07/25 10:28:47;;;;;;;6.03;3.90;;;;;;;30.69;28.44;100154.22;5073557;28;20099;-71
2022/07/25 10:31:21;;;;;;;5.13;3.75;;;;;;;30.66;28.57;100154.66;5074731;28;20059;-71
2022/07/25 10:33:57;;;;;;;6.25;3.92;;;;;;;30.50;28.58;100146.97;5074508;28;20080;-71
2022/07/25 10:36:29;;;;;;;4.90;3.72;;;;;;;30.47;29.33;100152.91;5074130;28;20059;-71
2022/07/25 10:38:59;;;;;;;6.03;3.60;;;;;;;30.47;28.79;100139.97;5074317;28;20058;-72
2022/07/25 10:41:28;;;;;;;5.50;3.35;;;;;;;30.70;28.58;100141.31;5074267;28;20400;-72
2022/07/25 10:44:02;;;;;;;6.53;3.88;;;;;;;30.73;28.81;100141.69;5074428;28;20052;-71
2022/07/25 10:46:35;;;;;;;5.40;3.70;;;;;;;30.55;29.28;100132.50;5075218;28;20044;-72
2022/07/25 10:49:04;;;;;;;;;;;;;;;30.72;28.83;100137.25;5075934;28;20040;-71
2022/07/25 10:51:35;;;;;;;5.50;3.80;;;;;;;30.66;29.01;100123.53;5074764;28;20404;-71
2022/07/25 10:54:14;;;;;;;6.18;3.95;;;;;;;30.60;29.07;100129.94;5075164;28;20098;-71
2022/07/25 10:56:52;;;;;;;6.15;4.03;;;;;;;30.66;28.59;100121.63;5075168;28;20052;-71
2022/07/25 10:59:30;;;;;;;6.28;4.22;;;;;;;30.75;28.86;100128.53;5075269;28;20382;-72
2022/07/25 11:01:59;;;;;;;8.55;4.20;;;;;;;30.88;28.30;100115.69;5075085;28;20044;-71
2022/07/25 11:04:27;;;;;;;6.07;4.07;;;;;;;30.95;28.10;100111.78;5074589;28;20044;-72
2022/07/25 11:06:56;;;;;;;5.90;3.65;;;;;;;31.08;27.68;100113.59;5074516;28;20068;-72
2022/07/25 11:09:26;;;;;;;5.35;3.75;;;;;;;31.03;27.21;100107.91;5074910;28;20047;-72
2022/07/25 11:11:57;;;;;;;7.32;3.70;;;;;;;31.17;26.76;100098.41;5075026;28;20481;-71
2022/07/25 11:14:29;;;;;;;5.18;3.90;;;;;;;31.24;26.86;100099.19;5073246;28;20056;-72
2022/07/25 11:17:11;;;;;;;5.40;3.67;;;;;;;31.15;27.50;100095.03;5075151;28;20053;-71
2022/07/25 11:19:41;;;;;;;5.55;4.28;;;;;;;31.24;27.65;100088.19;5074781;28;20040;-71
2022/07/25 11:22:10;;;;;;;8.02;4.00;;;;;;;31.34;27.48;100088.47;5073423;28;20059;-71
2022/07/25 11:24:40;;;;;;;7.55;4.25;;;;;;;31.32;27.50;100092.53;5074413;28;20402;-72
2022/07/25 11:27:10;;;;;;;7.63;3.90;;;;;;;31.37;27.66;100083.59;5073209;28;20056;-71
2022/07/25 11:29:40;;;;;;;7.80;3.90;;;;;;;31.39;27.12;100084.19;5074411;28;20075;-71
2022/07/25 11:32:12;;;;;;;7.40;3.83;;;;;;;31.13;27.33;100075.16;5073276;28;20051;-71
2022/07/25 11:34:43;;;;;;;5.22;3.85;;;;;;;30.94;27.44;100067.97;5073187;28;20062;-71
2022/07/25 11:37:13;;;;;;;5.78;3.80;;;;;;;31.02;27.97;100067.66;5073005;28;20044;-71
2022/07/25 11:39:44;;;;;;;9.15;4.35;;;;;;;31.13;27.81;100063.28;5072007;28;20048;-71
2022/07/25 11:42:15;;;;;;;6.28;4.00;;;;;;;31.00;27.96;100058.81;5073320;28;20055;-71